sensor_id;sensor_type;location;lat;lon;timestamp;P1;durP1;ratioP1;P2;durP2;ratioP2
20084;SDS011;10202;48.474;9.138;2022-12-18T09:43:16;25.93;;;11.00;;
20084;SDS011;10202;48.474;9.138;2022-12-18T09:45:56;36.23;;;16.73;;
20084;SDS011;10202;48.474;9.138;2022-12-18T09:48:37;43.13;;;19.80;;
20084;SDS011;10202;48.474;9.138;2022-12-18T09:51:13;53.13;;;23.33;;
20084;SDS011;10202;48.474;9.138;2022-12-18T09:53:46;57.87;;;24.93;;
20084;SDS011;10202;48.474;9.138;2022-12-18T09:56:19;54.50;;;23.57;;
20084;SDS011;10202;48.474;9.138;2022-12-18T10:01:23;56.73;;;24.50;;
20084;SDS011;10202;48.474;9.138;2022-12-18T10:03:53;59.33;;;24.07;;
20084;SDS011;10202;48.474;9.138;2022-12-18T10:06:23;78.13;;;28.50;;
20084;SDS011;10202;48.474;9.138;2022-12-18T10:18:32;67.00;;;28.87;;
20084;SDS011;10202;48.474;9.138;2022-12-18T10:21:15;53.93;;;25.20;;
20084;SDS011;10202;48.474;9.138;2022-12-18T10:23:53;47.80;;;22.60;;
20084;SDS011;10202;48.474;9.138;2022-12-18T10:26:28;48.17;;;22.30;;
20084;SDS011;10202;48.474;9.138;2022-12-18T10:28:58;45.90;;;21.27;;
20084;SDS011;10202;48.474;9.138;2022-12-18T10:31:26;51.80;;;23.37;;
20084;SDS011;10202;48.474;9.138;2022-12-18T10:33:55;50.77;;;23.17;;
20084;SDS011;10202;48.474;9.138;2022-12-18T10:36:28;49.63;;;22.33;;
20084;SDS011;10202;48.474;9.138;2022-12-18T10:39:13;48.43;;;22.60;;
20084;SDS011;10202;48.474;9.138;2022-12-18T10:41:47;50.20;;;23.07;;
20084;SDS011;10202;48.474;9.138;2022-12-18T10:46:55;55.47;;;23.70;;
20084;SDS011;10202;48.474;9.138;2022-12-18T10:49:34;51.10;;;21.53;;
20084;SDS011;10202;48.474;9.138;2022-12-18T10:54:55;57.30;;;28.03;;
20084;SDS011;10202;48.474;9.138;2022-12-18T10:57:31;56.70;;;26.57;;
20084;SDS011;10202;48.474;9.138;2022-12-18T11:00:00;54.77;;;26.93;;
20084;SDS011;10202;48.474;9.138;2022-12-18T11:02:46;62.83;;;27.50;;
20084;SDS011;10202;48.474;9.138;2022-12-18T11:07:56;63.43;;;30.23;;
20084;SDS011;10202;48.474;9.138;2022-12-18T11:10:26;61.67;;;28.77;;
20084;SDS011;10202;48.474;9.138;2022-12-18T11:13:17;62.00;;;27.43;;
20084;SDS011;10202;48.474;9.138;2022-12-18T11:15:47;59.37;;;26.50;;
20084;SDS011;10202;48.474;9.138;2022-12-18T11:26:23;40.90;;;19.60;;
20084;SDS011;10202;48.474;9.138;2022-12-18T11:29:14;49.90;;;21.53;;
20084;SDS011;10202;48.474;9.138;2022-12-18T11:34:57;49.00;;;22.67;;
20084;SDS011;10202;48.474;9.138;2022-12-18T11:37:27;41.67;;;20.13;;
20084;SDS011;10202;48.474;9.138;2022-12-18T11:39:58;42.80;;;20.10;;
20084;SDS011;10202;48.474;9.138;2022-12-18T11:42:55;43.40;;;19.93;;
20084;SDS011;10202;48.474;9.138;2022-12-18T11:45:34;43.73;;;19.63;;
20084;SDS011;10202;48.474;9.138;2022-12-18T11:51:04;44.67;;;20.27;;
20084;SDS011;10202;48.474;9.138;2022-12-18T11:53:33;43.50;;;21.00;;
20084;SDS011;10202;48.474;9.138;2022-12-18T11:58:45;43.77;;;20.27;;
20084;SDS011;10202;48.474;9.138;2022-12-18T12:10:12;44.43;;;19.10;;
20084;SDS011;10202;48.474;9.138;2022-12-18T12:39:35;44.00;;;20.17;;
20084;SDS011;10202;48.474;9.138;2022-12-18T12:42:06;41.40;;;19.87;;
20084;SDS011;10202;48.474;9.138;2022-12-18T12:45:16;43.67;;;21.00;;
20084;SDS011;10202;48.474;9.138;2022-12-18T12:48:10;45.77;;;21.97;;
20084;SDS011;10202;48.474;9.138;2022-12-18T12:50:45;46.30;;;21.17;;
20084;SDS011;10202;48.474;9.138;2022-12-18T12:53:15;51.57;;;23.13;;
20084;SDS011;10202;48.474;9.138;2022-12-18T12:55:52;47.30;;;22.23;;
20084;SDS011;10202;48.474;9.138;2022-12-18T13:01:17;46.50;;;21.80;;
20084;SDS011;10202;48.474;9.138;2022-12-18T13:04:08;43.77;;;21.47;;
20084;SDS011;10202;48.474;9.138;2022-12-18T13:06:46;49.73;;;23.43;;
20084;SDS011;10202;48.474;9.138;2022-12-18T13:09:31;44.43;;;20.50;;
20084;SDS011;10202;48.474;9.138;2022-12-18T13:12:03;44.97;;;22.30;;
20084;SDS011;10202;48.474;9.138;2022-12-18T13:14:53;51.67;;;24.33;;
20084;SDS011;10202;48.474;9.138;2022-12-18T13:19:47;50.90;;;24.10;;
20084;SDS011;10202;48.474;9.138;2022-12-18T13:22:22;46.43;;;22.43;;
20084;SDS011;10202;48.474;9.138;2022-12-18T13:25:32;44.40;;;21.57;;
20084;SDS011;10202;48.474;9.138;2022-12-18T13:28:02;50.57;;;23.40;;
20084;SDS011;10202;48.474;9.138;2022-12-18T13:35:42;55.10;;;24.73;;
20084;SDS011;10202;48.474;9.138;2022-12-18T13:48:27;49.80;;;22.70;;
20084;SDS011;10202;48.474;9.138;2022-12-18T13:56:52;44.43;;;20.97;;
20084;SDS011;10202;48.474;9.138;2022-12-18T13:59:23;55.27;;;24.23;;
20084;SDS011;10202;48.474;9.138;2022-12-18T14:02:14;53.90;;;22.40;;
20084;SDS011;10202;48.474;9.138;2022-12-18T14:04:48;48.40;;;21.97;;
20084;SDS011;10202;48.474;9.138;2022-12-18T14:07:15;47.67;;;21.47;;
20084;SDS011;10202;48.474;9.138;2022-12-18T14:09:46;51.17;;;23.47;;
20084;SDS011;10202;48.474;9.138;2022-12-18T14:12:21;45.30;;;21.80;;
20084;SDS011;10202;48.474;9.138;2022-12-18T14:15:20;44.33;;;20.60;;
20084;SDS011;10202;48.474;9.138;2022-12-18T14:20:57;40.67;;;18.97;;
